createdAt,value
2022-07-25T00:00:06.770Z,1012.74
2022-07-25T00:01:06.902Z,1012.71
2022-07-25T00:02:07.277Z,1012.70
2022-07-25T00:03:06.576Z,1012.69
2022-07-25T00:04:06.897Z,1012.68
2022-07-25T00:05:06.530Z,1012.68
2022-07-25T00:06:06.575Z,1012.62
2022-07-25T00:07:06.481Z,1012.66
2022-07-25T00:08:06.450Z,1012.64
2022-07-25T00:09:06.434Z,1012.63
2022-07-25T00:10:06.386Z,1012.61
2022-07-25T00:11:06.420Z,1012.62
2022-07-25T00:12:06.376Z,1012.58
2022-07-25T00:13:06.288Z,1012.55
2022-07-25T00:14:06.557Z,1012.49
2022-07-25T00:15:06.239Z,1012.50
2022-07-25T00:16:06.292Z,1012.49
2022-07-25T00:17:06.233Z,1012.46
2022-07-25T00:18:06.174Z,1012.50
2022-07-25T00:19:06.127Z,1012.44
2022-07-25T00:20:06.094Z,1012.42
2022-07-25T00:21:06.063Z,1012.39
2022-07-25T00:22:06.098Z,1012.36
2022-07-25T00:23:06.087Z,1012.40
2022-07-25T00:24:06.260Z,1012.38
2022-07-25T00:25:05.988Z,1012.40
2022-07-25T00:26:05.925Z,1012.41
2022-07-25T00:27:05.894Z,1012.38
2022-07-25T00:28:05.923Z,1012.40
2022-07-25T00:29:05.913Z,1012.35
2022-07-25T00:30:05.809Z,1012.37
2022-07-25T00:31:05.817Z,1012.36
2022-07-25T00:32:05.770Z,1012.35
2022-07-25T00:33:05.723Z,1012.36
2022-07-25T00:34:06.044Z,1012.34
2022-07-25T00:35:05.744Z,1012.30
2022-07-25T00:36:05.647Z,1012.32
2022-07-25T00:37:05.624Z,1012.34
2022-07-25T00:38:05.649Z,1012.29
2022-07-25T00:39:05.550Z,1012.33
2022-07-25T00:40:05.540Z,1012.33
2022-07-25T00:41:05.636Z,1012.33
2022-07-25T00:42:05.479Z,1012.32
2022-07-25T00:43:05.486Z,1012.31
2022-07-25T00:44:05.778Z,1012.30
2022-07-25T00:45:05.445Z,1012.29
2022-07-25T00:46:05.412Z,1012.29
2022-07-25T00:47:05.394Z,1012.25
2022-07-25T00:48:05.295Z,1012.21
2022-07-25T00:49:05.426Z,1012.23
2022-07-25T00:50:05.242Z,1012.24
2022-07-25T00:51:05.209Z,1012.23
2022-07-25T00:52:05.177Z,1012.22
2022-07-25T00:53:05.237Z,1012.22
2022-07-25T00:54:05.341Z,1012.19
2022-07-25T00:55:05.105Z,1012.18
2022-07-25T00:56:05.067Z,1012.12
2022-07-25T00:57:05.035Z,1012.13
2022-07-25T00:58:05.012Z,1012.13
2022-07-25T00:59:05.057Z,1012.10
2022-07-25T01:00:04.954Z,1012.15
2022-07-25T01:01:04.922Z,1012.09
2022-07-25T01:02:04.977Z,1012.08
2022-07-25T01:03:04.905Z,1012.03
2022-07-25T01:04:05.205Z,1012.03
2022-07-25T01:05:04.872Z,1012.06
2022-07-25T01:06:04.789Z,1012.07
2022-07-25T01:07:04.753Z,1012.09
2022-07-25T01:08:04.718Z,1012.07
2022-07-25T01:09:04.692Z,1012.11
2022-07-25T01:10:04.722Z,1012.09
2022-07-25T01:11:04.641Z,1012.12
2022-07-25T01:12:04.611Z,1012.13
2022-07-25T01:13:04.642Z,1012.10
2022-07-25T01:14:04.905Z,1012.11
2022-07-25T01:15:04.526Z,1012.11
2022-07-25T01:16:04.539Z,1012.11
2022-07-25T01:17:04.467Z,1012.09
2022-07-25T01:18:04.435Z,1012.04
2022-07-25T01:19:04.498Z,1012.03
2022-07-25T01:20:04.397Z,1012.05
2022-07-25T01:21:04.350Z,1012.07
2022-07-25T01:22:04.320Z,1012.04
2022-07-25T01:23:04.345Z,1012.05
2022-07-25T01:24:04.544Z,1012.05
2022-07-25T01:25:04.278Z,1012.03
2022-07-25T01:26:04.209Z,1012.03
2022-07-25T01:27:04.253Z,1011.99
2022-07-25T01:28:04.229Z,1011.97
2022-07-25T01:29:04.127Z,1011.95
2022-07-25T01:30:04.094Z,1011.95
2022-07-25T01:31:04.122Z,1011.94
2022-07-25T01:32:04.036Z,1011.93
2022-07-25T01:33:06.658Z,1011.95
2022-07-25T01:34:04.381Z,1011.91
2022-07-25T01:35:04.006Z,1011.89
2022-07-25T01:36:03.923Z,1011.92
2022-07-25T01:37:03.892Z,1011.91
2022-07-25T01:38:03.866Z,1011.87
2022-07-25T01:39:03.910Z,1011.88
2022-07-25T01:40:03.822Z,1011.90
2022-07-25T01:41:03.788Z,1011.87
2022-07-25T01:42:03.748Z,1011.83
2022-07-25T01:43:03.725Z,1011.81
2022-07-25T01:44:04.021Z,1011.81
2022-07-25T01:45:03.741Z,1011.81
2022-07-25T01:46:03.667Z,1011.80
2022-07-25T01:47:03.611Z,1011.80
2022-07-25T01:48:03.611Z,1011.76
2022-07-25T01:49:03.596Z,1011.78
2022-07-25T01:50:03.519Z,1011.78
2022-07-25T01:51:03.549Z,1011.76
2022-07-25T01:52:03.463Z,1011.78
2022-07-25T01:53:03.443Z,1011.76
2022-07-25T01:54:03.780Z,1011.77
2022-07-25T01:55:03.387Z,1011.76
2022-07-25T01:56:03.453Z,1011.80
2022-07-25T01:57:03.379Z,1011.75
2022-07-25T01:58:03.296Z,1011.76
2022-07-25T01:59:03.292Z,1011.74
2022-07-25T02:00:03.239Z,1011.72
2022-07-25T02:01:03.278Z,1011.74
2022-07-25T02:02:03.365Z,1011.72
2022-07-25T02:03:03.143Z,1011.73
2022-07-25T02:04:03.324Z,1011.71
2022-07-25T02:05:03.141Z,1011.70
2022-07-25T02:06:03.152Z,1011.73
2022-07-25T02:07:03.033Z,1011.71
2022-07-25T02:08:03.007Z,1011.66
2022-07-25T02:09:02.977Z,1011.68
2022-07-25T02:10:02.950Z,1011.66
2022-07-25T02:11:02.916Z,1011.63
2022-07-25T02:12:02.951Z,1011.68
2022-07-25T02:13:02.867Z,1011.64
2022-07-25T02:14:03.051Z,1011.60
2022-07-25T02:15:02.857Z,1011.62
2022-07-25T02:16:02.777Z,1011.62
2022-07-25T02:17:02.849Z,1011.60
2022-07-25T02:18:03.445Z,1011.61
2022-07-25T02:19:02.690Z,1011.59
2022-07-25T02:20:02.663Z,1011.60
2022-07-25T02:21:02.631Z,1011.58
2022-07-25T02:22:02.649Z,1011.58
2022-07-25T02:23:02.644Z,1011.58
2022-07-25T02:24:02.947Z,1011.56
2022-07-25T02:25:02.516Z,1011.55
2022-07-25T02:26:02.498Z,1011.53
2022-07-25T02:27:02.459Z,1011.50
2022-07-25T02:28:02.486Z,1011.46
2022-07-25T02:29:02.407Z,1011.46
2022-07-25T02:30:02.373Z,1011.48
2022-07-25T02:31:02.386Z,1011.47
2022-07-25T02:32:02.319Z,1011.44
2022-07-25T02:33:02.492Z,1011.47
2022-07-25T02:34:02.264Z,1011.42
2022-07-25T02:35:02.288Z,1011.40
2022-07-25T02:36:02.200Z,1011.41
2022-07-25T02:37:02.184Z,1011.42
2022-07-25T02:38:02.181Z,1011.37
2022-07-25T02:39:02.368Z,1011.38
2022-07-25T02:40:02.084Z,1011.37
2022-07-25T02:41:02.058Z,1011.36
2022-07-25T02:42:02.030Z,1011.36
2022-07-25T02:43:01.996Z,1011.34
2022-07-25T02:44:01.974Z,1011.34
2022-07-25T02:45:02.217Z,1011.38
2022-07-25T02:46:02.018Z,1011.35
2022-07-25T02:47:01.885Z,1011.32
2022-07-25T02:48:01.859Z,1011.33
2022-07-25T02:49:01.940Z,1011.26
2022-07-25T02:50:01.803Z,1011.29
2022-07-25T02:51:01.969Z,1011.27
2022-07-25T02:52:01.743Z,1011.25
2022-07-25T02:53:01.713Z,1011.21
2022-07-25T02:54:01.684Z,1011.21
2022-07-25T02:55:04.840Z,1011.19
2022-07-25T02:56:01.676Z,1011.18
2022-07-25T02:57:01.659Z,1011.14
2022-07-25T02:58:01.567Z,1011.16
2022-07-25T02:59:01.548Z,1011.12
2022-07-25T03:00:01.511Z,1011.13
2022-07-25T03:01:01.522Z,1011.10
2022-07-25T03:02:01.530Z,1011.06
2022-07-25T03:03:01.433Z,1011.09
2022-07-25T03:04:01.438Z,1011.10
2022-07-25T03:05:01.371Z,1011.04
2022-07-25T03:06:01.348Z,1011.07
2022-07-25T03:07:01.315Z,1011.04
2022-07-25T03:08:01.356Z,1011.03
2022-07-25T03:09:01.254Z,1011.05
2022-07-25T03:10:01.260Z,1011.00
2022-07-25T03:11:01.197Z,1011.05
2022-07-25T03:12:01.173Z,1010.97
2022-07-25T03:13:01.137Z,1011.01
2022-07-25T03:14:01.213Z,1010.99
2022-07-25T03:15:01.093Z,1011.00
2022-07-25T03:16:01.075Z,1010.99
2022-07-25T03:17:01.046Z,1011.00
2022-07-25T03:18:00.994Z,1010.94
2022-07-25T03:19:00.962Z,1010.94
2022-07-25T03:20:01.019Z,1010.96
2022-07-25T03:21:00.906Z,1010.93
2022-07-25T03:22:00.877Z,1010.90
2022-07-25T03:23:00.856Z,1010.94
2022-07-25T03:24:01.460Z,1010.94
2022-07-25T03:25:00.794Z,1010.90
2022-07-25T03:26:00.966Z,1010.90
2022-07-25T03:27:00.731Z,1010.89
2022-07-25T03:28:00.702Z,1010.90
2022-07-25T03:29:00.688Z,1010.87
2022-07-25T03:30:00.654Z,1010.92
2022-07-25T03:31:00.614Z,1010.89
2022-07-25T03:32:00.868Z,1010.88
2022-07-25T03:33:00.589Z,1010.89
2022-07-25T03:34:00.545Z,1010.83
2022-07-25T03:35:00.503Z,1010.83
2022-07-25T03:36:00.473Z,1010.79
2022-07-25T03:37:00.442Z,1010.84
2022-07-25T03:38:00.612Z,1010.80
2022-07-25T03:39:00.413Z,1010.84
2022-07-25T03:40:00.368Z,1010.80
2022-07-25T03:41:00.326Z,1010.81
2022-07-25T03:42:00.304Z,1010.80
2022-07-25T03:43:00.276Z,1010.79
2022-07-25T03:44:00.312Z,1010.78
2022-07-25T03:45:00.212Z,1010.79
2022-07-25T03:46:00.257Z,1010.79
2022-07-25T03:47:00.162Z,1010.76
2022-07-25T03:48:00.134Z,1010.76
2022-07-25T03:49:00.225Z,1010.72
2022-07-25T03:50:00.193Z,1010.74
2022-07-25T03:51:03.570Z,1010.74
2022-07-25T03:52:00.010Z,1010.74
2022-07-25T03:53:00.016Z,1010.74
2022-07-25T03:53:59.954Z,1010.73
2022-07-25T03:54:59.928Z,1010.73
2022-07-25T03:56:00.107Z,1010.72
2022-07-25T03:56:59.865Z,1010.74
2022-07-25T03:57:59.842Z,1010.74
2022-07-25T03:59:03.541Z,1010.71
2022-07-25T03:59:59.786Z,1010.71
2022-07-25T04:00:59.801Z,1010.72
2022-07-25T04:01:59.822Z,1010.68
2022-07-25T04:02:59.742Z,1010.67
2022-07-25T04:03:59.666Z,1010.67
2022-07-25T04:04:59.633Z,1010.68
2022-07-25T04:05:59.615Z,1010.65
2022-07-25T04:06:59.577Z,1010.67
2022-07-25T04:07:59.628Z,1010.66
2022-07-25T04:08:59.523Z,1010.68
2022-07-25T04:09:59.490Z,1010.61
2022-07-25T04:10:59.466Z,1010.64
2022-07-25T04:11:59.442Z,1010.65
2022-07-25T04:12:59.421Z,1010.67
2022-07-25T04:13:59.633Z,1010.64
2022-07-25T04:14:59.346Z,1010.62
2022-07-25T04:15:59.317Z,1010.63
2022-07-25T04:16:59.384Z,1010.62
2022-07-25T04:17:59.277Z,1010.63
2022-07-25T04:18:59.235Z,1010.64
2022-07-25T04:19:59.275Z,1010.62
2022-07-25T04:20:59.172Z,1010.64
2022-07-25T04:21:59.149Z,1010.62
2022-07-25T04:22:59.120Z,1010.63
2022-07-25T04:23:59.090Z,1010.58
2022-07-25T04:24:59.059Z,1010.59
2022-07-25T04:25:59.153Z,1010.56
2022-07-25T04:26:59.003Z,1010.54
2022-07-25T04:27:58.979Z,1010.53
2022-07-25T04:28:58.956Z,1010.55
2022-07-25T04:29:58.922Z,1010.56
2022-07-25T04:30:58.890Z,1010.51
2022-07-25T04:31:59.208Z,1010.43
2022-07-25T04:32:58.837Z,1010.46
2022-07-25T04:33:58.808Z,1010.46
2022-07-25T04:34:58.891Z,1010.42
2022-07-25T04:35:58.750Z,1010.38
2022-07-25T04:36:58.729Z,1010.39
2022-07-25T04:37:58.778Z,1010.38
2022-07-25T04:38:58.667Z,1010.35
2022-07-25T04:39:58.637Z,1010.34
2022-07-25T04:41:00.483Z,1010.30
2022-07-25T04:41:58.584Z,1010.29
2022-07-25T04:42:58.559Z,1010.26
2022-07-25T04:43:59.483Z,1010.26
2022-07-25T04:44:58.506Z,1010.23
2022-07-25T04:45:58.564Z,1010.22
2022-07-25T04:46:58.443Z,1010.19
2022-07-25T04:47:58.417Z,1010.14
2022-07-25T04:48:58.461Z,1010.12
2022-07-25T04:49:58.437Z,1010.13
2022-07-25T04:50:58.341Z,1010.11
2022-07-25T04:51:58.309Z,1010.03
2022-07-25T04:52:58.281Z,1010.04
2022-07-25T04:53:58.255Z,1009.98
2022-07-25T04:54:58.226Z,1010.02
2022-07-25T04:55:58.293Z,1009.97
2022-07-25T04:56:58.169Z,1009.96
2022-07-25T04:57:58.142Z,1009.94
2022-07-25T04:59:01.856Z,1009.95
2022-07-25T04:59:58.084Z,1009.92
2022-07-25T05:00:58.082Z,1009.92
2022-07-25T05:01:58.298Z,1009.92
2022-07-25T05:02:58.000Z,1009.93
2022-07-25T05:03:57.974Z,1009.89
2022-07-25T05:04:57.951Z,1009.88
2022-07-25T05:05:57.926Z,1009.87
2022-07-25T05:06:57.895Z,1009.88
2022-07-25T05:07:58.070Z,1009.90
2022-07-25T05:08:57.837Z,1009.82
2022-07-25T05:09:57.818Z,1009.83
2022-07-25T05:10:57.787Z,1009.83
2022-07-25T05:11:57.758Z,1009.80
2022-07-25T05:13:00.492Z,1009.77
2022-07-25T05:13:57.787Z,1009.80
2022-07-25T05:14:57.683Z,1009.80
2022-07-25T05:15:57.727Z,1009.77
2022-07-25T05:16:57.625Z,1009.81
2022-07-25T05:17:57.611Z,1009.80
2022-07-25T05:18:57.576Z,1009.84
2022-07-25T05:19:57.631Z,1009.84
2022-07-25T05:20:57.518Z,1009.79
2022-07-25T05:21:57.487Z,1009.83
2022-07-25T05:22:57.475Z,1009.80
2022-07-25T05:23:57.433Z,1009.83
2022-07-25T05:24:57.406Z,1009.81
2022-07-25T05:25:57.445Z,1009.80
2022-07-25T05:26:57.390Z,1009.78
2022-07-25T05:27:57.341Z,1009.81
2022-07-25T05:28:57.305Z,1009.82
2022-07-25T05:29:57.269Z,1009.80
2022-07-25T05:30:57.250Z,1009.75
2022-07-25T05:31:57.337Z,1009.78
2022-07-25T05:32:57.199Z,1009.76
2022-07-25T05:33:57.173Z,1009.74
2022-07-25T05:34:57.144Z,1009.74
2022-07-25T05:35:57.120Z,1009.73
2022-07-25T05:36:57.093Z,1009.74
2022-07-25T05:37:57.173Z,1009.73
2022-07-25T05:38:57.038Z,1009.70
2022-07-25T05:39:57.014Z,1009.69
2022-07-25T05:40:56.999Z,1009.65
2022-07-25T05:41:56.968Z,1009.68
2022-07-25T05:43:00.931Z,1009.68
2022-07-25T05:43:57.102Z,1009.65
2022-07-25T05:44:56.886Z,1009.69
2022-07-25T05:45:56.865Z,1009.68
2022-07-25T05:46:56.907Z,1009.70
2022-07-25T05:47:56.868Z,1009.67
2022-07-25T05:48:56.841Z,1009.68
2022-07-25T05:49:57.325Z,1009.64
2022-07-25T05:50:56.737Z,1009.64
2022-07-25T05:51:56.737Z,1009.64
2022-07-25T05:52:56.690Z,1009.60
2022-07-25T05:53:56.661Z,1009.61
2022-07-25T05:54:56.646Z,1009.62
2022-07-25T05:55:56.681Z,1009.63
2022-07-25T05:56:56.581Z,1009.57
2022-07-25T05:57:56.562Z,1009.55
2022-07-25T05:58:56.532Z,1009.59
2022-07-25T05:59:56.621Z,1009.51
2022-07-25T06:00:56.499Z,1009.51
2022-07-25T06:01:56.594Z,1009.48
2022-07-25T06:02:56.558Z,1009.50
2022-07-25T06:03:56.414Z,1009.49
2022-07-25T06:04:56.383Z,1009.44
2022-07-25T06:05:56.437Z,1009.44
2022-07-25T06:06:56.336Z,1009.43
2022-07-25T06:07:56.450Z,1009.39
2022-07-25T06:08:56.284Z,1009.41
2022-07-25T06:09:56.288Z,1009.35
2022-07-25T06:10:57.019Z,1009.38
2022-07-25T06:11:59.965Z,1009.37
2022-07-25T06:12:56.187Z,1009.36
2022-07-25T06:13:56.353Z,1009.32
2022-07-25T06:14:56.137Z,1009.36
2022-07-25T06:15:56.140Z,1009.35
2022-07-25T06:16:56.077Z,1009.32
2022-07-25T06:17:56.055Z,1009.36
2022-07-25T06:18:56.032Z,1009.37
2022-07-25T06:19:56.300Z,1009.26
2022-07-25T06:20:55.980Z,1009.31
2022-07-25T06:21:55.957Z,1009.27
2022-07-25T06:22:55.933Z,1009.26
2022-07-25T06:23:55.913Z,1009.24
2022-07-25T06:24:55.881Z,1009.29
2022-07-25T06:25:55.925Z,1009.29
2022-07-25T06:26:55.832Z,1009.25
2022-07-25T06:27:55.810Z,1009.21
2022-07-25T06:28:55.780Z,1009.27
2022-07-25T06:29:55.767Z,1009.20
2022-07-25T06:30:55.732Z,1009.19
2022-07-25T06:31:55.923Z,1009.19
2022-07-25T06:32:55.680Z,1009.20
2022-07-25T06:33:55.665Z,1009.16
2022-07-25T06:34:55.629Z,1009.17
2022-07-25T06:35:55.598Z,1009.13
2022-07-25T06:36:56.531Z,1009.11
2022-07-25T06:37:55.700Z,1009.14
2022-07-25T06:38:55.528Z,1009.11
2022-07-25T06:39:55.504Z,1009.10
2022-07-25T06:40:56.131Z,1009.07
2022-07-25T06:41:55.453Z,1009.08
2022-07-25T06:42:55.426Z,1009.10
2022-07-25T06:43:55.500Z,1009.05
2022-07-25T06:44:55.377Z,1009.09
2022-07-25T06:45:55.353Z,1009.07
2022-07-25T06:46:55.363Z,1009.07
2022-07-25T06:47:55.302Z,1009.09
2022-07-25T06:48:55.376Z,1009.05
2022-07-25T06:49:55.433Z,1009.08
2022-07-25T06:50:56.134Z,1009.01
2022-07-25T06:51:55.207Z,1009.00
2022-07-25T06:52:55.182Z,1009.02
2022-07-25T06:53:55.155Z,1009.04
2022-07-25T06:54:55.130Z,1009.03
2022-07-25T06:55:55.188Z,1009.00
2022-07-25T06:56:55.092Z,1008.96
2022-07-25T06:57:55.529Z,1008.92
2022-07-25T06:58:55.029Z,1008.95
2022-07-25T06:59:55.021Z,1008.92
2022-07-25T07:00:55.072Z,1008.93
2022-07-25T07:01:55.019Z,1008.90
2022-07-25T07:02:55.002Z,1008.90
2022-07-25T07:03:55.073Z,1008.89
2022-07-25T07:04:54.885Z,1008.90
2022-07-25T07:05:54.861Z,1008.87
2022-07-25T07:06:54.834Z,1008.84
2022-07-25T07:07:55.026Z,1008.86
2022-07-25T07:08:54.790Z,1008.85
2022-07-25T07:09:54.764Z,1008.86
2022-07-25T07:10:54.738Z,1008.82
2022-07-25T07:11:54.720Z,1008.82
2022-07-25T07:12:54.687Z,1008.85
2022-07-25T07:13:54.777Z,1008.80
2022-07-25T07:14:54.692Z,1008.82
2022-07-25T07:15:54.698Z,1008.72
2022-07-25T07:16:54.598Z,1008.71
2022-07-25T07:17:54.566Z,1008.72
2022-07-25T07:18:54.548Z,1008.73
2022-07-25T07:19:54.589Z,1008.69
2022-07-25T07:20:54.490Z,1008.73
2022-07-25T07:21:54.470Z,1008.73
2022-07-25T07:22:54.452Z,1008.69
2022-07-25T07:23:54.422Z,1008.69
2022-07-25T07:24:54.397Z,1008.70
2022-07-25T07:25:54.430Z,1008.66
2022-07-25T07:26:54.378Z,1008.67
2022-07-25T07:27:54.327Z,1008.68
2022-07-25T07:28:54.301Z,1008.62
2022-07-25T07:29:54.280Z,1008.66
2022-07-25T07:31:54.375Z,1008.65
2022-07-25T07:32:54.207Z,1008.63
2022-07-25T07:33:54.191Z,1008.63
2022-07-25T07:34:54.161Z,1008.62
2022-07-25T07:35:54.139Z,1008.62
2022-07-25T07:36:54.190Z,1008.59
2022-07-25T07:37:54.087Z,1008.57
2022-07-25T07:38:54.093Z,1008.59
2022-07-25T07:39:54.053Z,1008.59
2022-07-25T07:40:54.016Z,1008.54
2022-07-25T07:41:54.036Z,1008.59
2022-07-25T07:42:54.059Z,1008.56
2022-07-25T07:43:53.942Z,1008.54
2022-07-25T07:44:53.933Z,1008.54
2022-07-25T07:45:53.901Z,1008.57
2022-07-25T07:46:53.945Z,1008.56
2022-07-25T07:47:53.864Z,1008.51
2022-07-25T07:48:53.960Z,1008.52
2022-07-25T07:49:53.808Z,1008.54
2022-07-25T07:50:53.781Z,1008.52
2022-07-25T07:51:53.770Z,1008.48
2022-07-25T07:52:53.744Z,1008.49
2022-07-25T07:53:53.709Z,1008.46
2022-07-25T07:54:59.070Z,1008.45
2022-07-25T07:55:53.668Z,1008.48
2022-07-25T07:56:53.646Z,1008.47
2022-07-25T07:57:53.622Z,1008.48
2022-07-25T07:58:53.594Z,1008.45
2022-07-25T07:59:53.573Z,1008.42
2022-07-25T08:00:53.752Z,1008.42
2022-07-25T08:01:53.622Z,1008.41
2022-07-25T08:02:53.552Z,1008.43
2022-07-25T08:03:53.482Z,1008.42
2022-07-25T08:04:53.461Z,1008.40
2022-07-25T08:05:53.436Z,1008.39
2022-07-25T08:06:53.475Z,1008.40
2022-07-25T08:07:53.388Z,1008.36
2022-07-25T08:08:53.360Z,1008.37
2022-07-25T08:09:53.342Z,1008.35
2022-07-25T08:10:58.411Z,1008.27
2022-07-25T08:11:53.360Z,1008.30
2022-07-25T08:12:53.330Z,1008.27
2022-07-25T08:13:53.249Z,1008.23
2022-07-25T08:14:53.231Z,1008.23
2022-07-25T08:15:53.272Z,1008.19
2022-07-25T08:16:53.202Z,1008.15
2022-07-25T08:17:53.213Z,1008.17
2022-07-25T08:18:53.201Z,1008.18
2022-07-25T08:19:53.112Z,1008.19
2022-07-25T08:20:53.090Z,1008.17
2022-07-25T08:21:53.065Z,1008.21
2022-07-25T08:22:56.360Z,1008.21
2022-07-25T08:23:53.080Z,1008.22
2022-07-25T08:24:53.083Z,1008.19
2022-07-25T08:25:52.978Z,1008.19
2022-07-25T08:26:53.686Z,1008.17
2022-07-25T08:27:52.935Z,1008.18
2022-07-25T08:29:17.060Z,1008.15
2022-07-25T08:29:52.892Z,1008.14
2022-07-25T08:30:53.157Z,1008.10
2022-07-25T08:31:52.913Z,1008.14
2022-07-25T08:32:52.827Z,1008.08
2022-07-25T08:33:53.674Z,1008.11
2022-07-25T08:34:52.867Z,1008.08
2022-07-25T08:35:52.752Z,1008.06
2022-07-25T08:36:52.839Z,1008.09
2022-07-25T08:37:52.704Z,1008.07
2022-07-25T08:38:52.748Z,1008.07
2022-07-25T08:39:52.664Z,1008.01
2022-07-25T08:40:52.642Z,1008.01
2022-07-25T08:41:52.629Z,1008.01
2022-07-25T08:42:52.654Z,1007.98
2022-07-25T08:43:52.640Z,1007.99
2022-07-25T08:44:52.610Z,1007.96
2022-07-25T08:45:52.531Z,1007.97
2022-07-25T08:46:52.559Z,1007.97
2022-07-25T08:47:52.492Z,1007.93
2022-07-25T08:48:52.584Z,1007.95
2022-07-25T08:49:52.444Z,1007.96
2022-07-25T08:50:52.516Z,1007.96
2022-07-25T08:51:52.401Z,1007.93
2022-07-25T08:53:00.892Z,1007.93
2022-07-25T08:53:52.387Z,1007.90
2022-07-25T08:54:52.332Z,1007.86
2022-07-25T08:55:52.308Z,1007.86
2022-07-25T08:56:52.346Z,1007.82
2022-07-25T08:57:52.264Z,1007.86
2022-07-25T08:58:52.243Z,1007.86
2022-07-25T08:59:52.229Z,1007.84
2022-07-25T09:00:52.229Z,1007.84
2022-07-25T09:01:52.285Z,1007.85
2022-07-25T09:02:52.264Z,1007.88
2022-07-25T09:03:52.140Z,1007.88
2022-07-25T09:04:52.118Z,1007.84
2022-07-25T09:05:52.112Z,1007.79
2022-07-25T09:06:52.092Z,1007.80
2022-07-25T09:07:52.114Z,1007.74
2022-07-25T09:08:52.090Z,1007.76
2022-07-25T09:09:52.008Z,1007.71
2022-07-25T09:10:52.005Z,1007.71
2022-07-25T09:11:51.967Z,1007.74
2022-07-25T09:12:52.002Z,1007.71
2022-07-25T09:13:51.921Z,1007.65
2022-07-25T09:14:51.951Z,1007.64
2022-07-25T09:15:51.926Z,1007.63
2022-07-25T09:16:51.861Z,1007.63
2022-07-25T09:17:51.841Z,1007.57
2022-07-25T09:18:51.875Z,1007.56
2022-07-25T09:19:51.799Z,1007.60
2022-07-25T09:20:51.770Z,1007.61
2022-07-25T09:21:51.753Z,1007.59
2022-07-25T09:22:51.733Z,1007.53
2022-07-25T09:23:51.909Z,1007.52
2022-07-25T09:24:51.698Z,1007.50
2022-07-25T09:25:51.670Z,1007.50
2022-07-25T09:26:51.652Z,1007.46
2022-07-25T09:27:51.628Z,1007.43
2022-07-25T09:28:51.609Z,1007.44
2022-07-25T09:29:51.736Z,1007.41
2022-07-25T09:30:51.595Z,1007.44
2022-07-25T09:31:51.541Z,1007.39
2022-07-25T09:32:51.524Z,1007.36
2022-07-25T09:33:51.505Z,1007.33
2022-07-25T09:34:51.544Z,1007.37
2022-07-25T09:35:51.772Z,1007.36
2022-07-25T09:36:51.442Z,1007.29
2022-07-25T09:37:53.089Z,1007.29
2022-07-25T09:38:51.400Z,1007.24
2022-07-25T09:39:51.437Z,1007.24
2022-07-25T09:40:51.358Z,1007.22
2022-07-25T09:41:51.384Z,1007.25
2022-07-25T09:42:51.320Z,1007.18
2022-07-25T09:43:51.298Z,1007.14
2022-07-25T09:44:51.294Z,1007.13
2022-07-25T09:45:51.343Z,1007.11
2022-07-25T09:46:51.271Z,1007.13
2022-07-25T09:47:51.271Z,1007.13
2022-07-25T09:48:51.273Z,1007.06
2022-07-25T09:49:51.170Z,1007.05
2022-07-25T09:50:51.154Z,1007.08
2022-07-25T09:51:51.183Z,1007.02
2022-07-25T09:52:51.111Z,1007.04
2022-07-25T09:53:51.089Z,1007.04
2022-07-25T09:54:51.134Z,1006.97
2022-07-25T09:55:51.049Z,1007.04
2022-07-25T09:56:51.278Z,1007.00
2022-07-25T09:57:51.121Z,1006.97
2022-07-25T09:58:51.000Z,1007.02
2022-07-25T09:59:50.968Z,1007.00
2022-07-25T10:00:50.952Z,1006.97
2022-07-25T10:01:50.992Z,1006.95
2022-07-25T10:02:50.948Z,1006.97
2022-07-25T10:03:50.953Z,1006.94
2022-07-25T10:04:50.868Z,1006.89
2022-07-25T10:05:50.858Z,1006.86
2022-07-25T10:06:50.831Z,1006.91
2022-07-25T10:07:50.818Z,1006.91
2022-07-25T10:08:50.957Z,1006.85
2022-07-25T10:09:50.783Z,1006.87
2022-07-25T10:10:50.748Z,1006.85
2022-07-25T10:11:50.730Z,1006.83
2022-07-25T10:12:50.705Z,1006.83
2022-07-25T10:13:50.691Z,1006.81
2022-07-25T10:14:50.763Z,1006.78
2022-07-25T10:15:50.649Z,1006.72
2022-07-25T10:16:50.699Z,1006.73
2022-07-25T10:17:50.605Z,1006.66
2022-07-25T10:18:50.595Z,1006.67
2022-07-25T10:19:55.452Z,1006.61
2022-07-25T10:20:50.610Z,1006.64
2022-07-25T10:21:50.525Z,1006.59
2022-07-25T10:22:58.457Z,1006.56
2022-07-25T10:23:50.485Z,1006.57
2022-07-25T10:24:50.471Z,1006.56
2022-07-25T10:25:50.513Z,1006.54
2022-07-25T10:26:50.488Z,1006.49
2022-07-25T10:27:50.415Z,1006.52
2022-07-25T10:28:50.392Z,1006.57
2022-07-25T10:29:50.374Z,1006.54
2022-07-25T10:30:50.390Z,1006.56
2022-07-25T10:31:51.905Z,1006.51
2022-07-25T10:32:50.315Z,1006.48
2022-07-25T10:33:50.297Z,1006.46
2022-07-25T10:34:50.281Z,1006.50
2022-07-25T10:35:50.276Z,1006.43
2022-07-25T10:36:53.953Z,1006.44
2022-07-25T10:37:50.228Z,1006.44
2022-07-25T10:38:50.746Z,1006.36
2022-07-25T10:39:51.121Z,1006.39
2022-07-25T10:40:50.181Z,1006.39
2022-07-25T10:41:50.152Z,1006.32
2022-07-25T10:42:50.218Z,1006.28
2022-07-25T10:43:50.118Z,1006.31
2022-07-25T10:44:50.095Z,1006.38
2022-07-25T10:45:50.085Z,1006.33
2022-07-25T10:46:50.641Z,1006.27
2022-07-25T10:47:50.041Z,1006.30
2022-07-25T10:48:50.167Z,1006.31
2022-07-25T10:50:13.901Z,1006.31
2022-07-25T10:50:57.118Z,1006.22
2022-07-25T10:51:49.974Z,1006.25
2022-07-25T10:52:49.936Z,1006.29
2022-07-25T10:53:49.919Z,1006.18
2022-07-25T10:54:50.016Z,1006.16
2022-07-25T10:56:05.174Z,1006.13
2022-07-25T10:56:49.890Z,1006.14
2022-07-25T10:58:15.323Z,1006.15
2022-07-25T10:58:49.851Z,1006.15
2022-07-25T10:59:49.812Z,1006.16
2022-07-25T11:00:49.963Z,1006.10
2022-07-25T11:01:49.848Z,1006.12
2022-07-25T11:02:49.873Z,1006.16
2022-07-25T11:03:49.745Z,1006.10
2022-07-25T11:04:49.721Z,1006.09
2022-07-25T11:05:49.709Z,1006.09
2022-07-25T11:06:49.826Z,1006.04
2022-07-25T11:08:11.274Z,1006.05
2022-07-25T11:08:50.242Z,1006.01
2022-07-25T11:09:49.624Z,1006.09
2022-07-25T11:10:49.614Z,1006.00
2022-07-25T11:11:49.572Z,1006.03
2022-07-25T11:12:49.648Z,1006.02
2022-07-25T11:13:50.323Z,1006.02
2022-07-25T11:14:50.130Z,1006.04
2022-07-25T11:15:49.529Z,1006.00
2022-07-25T11:16:50.286Z,1005.97
2022-07-25T11:17:49.468Z,1005.91
2022-07-25T11:18:49.600Z,1005.96
2022-07-25T11:19:50.133Z,1005.93
2022-07-25T11:20:49.416Z,1005.93
2022-07-25T11:21:49.395Z,1005.91
2022-07-25T11:22:49.383Z,1005.90
2022-07-25T11:23:49.360Z,1005.84
2022-07-25T11:24:49.873Z,1005.88
2022-07-25T11:25:49.332Z,1005.83
2022-07-25T11:26:49.296Z,1005.75
2022-07-25T11:27:49.289Z,1005.76
2022-07-25T11:28:49.264Z,1005.79
2022-07-25T11:29:49.241Z,1005.77
2022-07-25T11:30:49.421Z,1005.76
2022-07-25T11:31:50.182Z,1005.76
2022-07-25T11:32:49.212Z,1005.69
2022-07-25T11:33:49.200Z,1005.70
2022-07-25T11:34:49.152Z,1005.75
2022-07-25T11:35:49.144Z,1005.68
2022-07-25T11:36:49.344Z,1005.75
2022-07-25T11:37:49.107Z,1005.65
2022-07-25T11:38:49.100Z,1005.62
2022-07-25T11:39:49.064Z,1005.60
2022-07-25T11:40:49.092Z,1005.57
2022-07-25T11:41:49.038Z,1005.56
2022-07-25T11:42:49.086Z,1005.53
2022-07-25T11:43:49.023Z,1005.53
2022-07-25T11:44:48.993Z,1005.59
2022-07-25T11:45:49.015Z,1005.57
2022-07-25T11:46:48.985Z,1005.49
2022-07-25T11:47:49.125Z,1005.51
2022-07-25T11:48:48.945Z,1005.57
2022-07-25T11:49:49.648Z,1005.43
2022-07-25T11:50:48.879Z,1005.48
2022-07-25T11:51:49.798Z,1005.45
2022-07-25T11:52:49.651Z,1005.45
2022-07-25T11:53:49.047Z,1005.45
2022-07-25T11:54:48.842Z,1005.43
2022-07-25T11:55:48.816Z,1005.47
2022-07-25T11:56:48.769Z,1005.41
2022-07-25T11:57:48.793Z,1005.42
2022-07-25T11:58:48.756Z,1005.38
2022-07-25T11:59:48.804Z,1005.37
2022-07-25T12:00:48.716Z,1005.34
2022-07-25T12:01:48.787Z,1005.31
2022-07-25T12:02:48.772Z,1005.29
2022-07-25T12:03:48.689Z,1005.31
2022-07-25T12:04:48.734Z,1005.28
2022-07-25T12:05:48.644Z,1005.23